Terminal Aerodrome Forecast
Issued by NWS

Home | Current Version | Previous Version | Text Only | Print | Product List | Glossary On
Versions: 1 2 3 4 5 6 7 8 9 10 11 12
772
FTUS45 KGGW 181720
TAFSDY
TAF
KSDY 181720Z 1818/1918 22011KT P6SM OVC180
     FM190700 22004KT P6SM VCSH OVC080
     FM191200 VRB05KT P6SM OVC100
     FM191700 26006KT P6SM BKN023=

USA.gov is the U.S. government's official web portal to all federal, state and local government web resources and services.